sensor_id;sensor_type;location;lat;lon;timestamp;P1;durP1;ratioP1;P2;durP2;ratioP2
10341;SDS011;5216;54.602;18.356;2022-12-04T00:01:05;31.03;;;22.23;;
10341;SDS011;5216;54.602;18.356;2022-12-04T00:03:33;30.70;;;21.33;;
10341;SDS011;5216;54.602;18.356;2022-12-04T00:06:04;31.90;;;21.50;;
10341;SDS011;5216;54.602;18.356;2022-12-04T00:08:30;29.63;;;21.30;;
10341;SDS011;5216;54.602;18.356;2022-12-04T00:10:57;30.43;;;20.57;;
10341;SDS011;5216;54.602;18.356;2022-12-04T00:13:24;32.37;;;21.63;;
10341;SDS011;5216;54.602;18.356;2022-12-04T00:15:51;28.73;;;21.23;;
10341;SDS011;5216;54.602;18.356;2022-12-04T00:18:18;30.43;;;20.57;;
10341;SDS011;5216;54.602;18.356;2022-12-04T00:20:44;26.90;;;21.13;;
10341;SDS011;5216;54.602;18.356;2022-12-04T00:23:11;26.47;;;19.90;;
10341;SDS011;5216;54.602;18.356;2022-12-04T00:25:37;29.13;;;20.97;;
10341;SDS011;5216;54.602;18.356;2022-12-04T00:28:06;29.67;;;21.13;;
10341;SDS011;5216;54.602;18.356;2022-12-04T00:30:33;30.40;;;20.97;;
10341;SDS011;5216;54.602;18.356;2022-12-04T00:33:00;31.57;;;20.40;;
10341;SDS011;5216;54.602;18.356;2022-12-04T00:35:26;29.47;;;20.93;;
10341;SDS011;5216;54.602;18.356;2022-12-04T00:37:52;30.80;;;20.97;;
10341;SDS011;5216;54.602;18.356;2022-12-04T00:40:19;31.20;;;21.27;;
10341;SDS011;5216;54.602;18.356;2022-12-04T00:42:45;30.40;;;20.50;;
10341;SDS011;5216;54.602;18.356;2022-12-04T00:45:12;27.73;;;20.23;;
10341;SDS011;5216;54.602;18.356;2022-12-04T00:47:38;32.93;;;20.60;;
10341;SDS011;5216;54.602;18.356;2022-12-04T00:50:05;32.70;;;21.50;;
10341;SDS011;5216;54.602;18.356;2022-12-04T00:52:31;30.37;;;20.50;;
10341;SDS011;5216;54.602;18.356;2022-12-04T00:54:58;31.63;;;21.33;;
10341;SDS011;5216;54.602;18.356;2022-12-04T00:57:24;28.50;;;20.70;;
10341;SDS011;5216;54.602;18.356;2022-12-04T00:59:51;32.53;;;21.03;;
10341;SDS011;5216;54.602;18.356;2022-12-04T01:02:17;31.17;;;21.57;;
10341;SDS011;5216;54.602;18.356;2022-12-04T01:04:44;31.33;;;20.90;;
10341;SDS011;5216;54.602;18.356;2022-12-04T01:07:10;29.73;;;20.87;;
10341;SDS011;5216;54.602;18.356;2022-12-04T01:09:37;31.43;;;21.17;;
10341;SDS011;5216;54.602;18.356;2022-12-04T01:12:03;29.33;;;20.33;;
10341;SDS011;5216;54.602;18.356;2022-12-04T01:14:31;31.43;;;21.03;;
10341;SDS011;5216;54.602;18.356;2022-12-04T01:16:57;34.23;;;21.97;;
10341;SDS011;5216;54.602;18.356;2022-12-04T01:19:24;33.10;;;22.53;;
10341;SDS011;5216;54.602;18.356;2022-12-04T01:21:50;31.20;;;22.27;;
10341;SDS011;5216;54.602;18.356;2022-12-04T01:24:17;30.00;;;20.93;;
10341;SDS011;5216;54.602;18.356;2022-12-04T01:26:43;31.57;;;21.30;;
10341;SDS011;5216;54.602;18.356;2022-12-04T01:29:10;33.10;;;21.73;;
10341;SDS011;5216;54.602;18.356;2022-12-04T01:31:36;31.17;;;21.07;;
10341;SDS011;5216;54.602;18.356;2022-12-04T01:34:03;36.20;;;22.27;;
10341;SDS011;5216;54.602;18.356;2022-12-04T01:36:29;32.83;;;22.00;;
10341;SDS011;5216;54.602;18.356;2022-12-04T01:38:56;30.90;;;20.67;;
10341;SDS011;5216;54.602;18.356;2022-12-04T01:41:24;32.07;;;22.20;;
10341;SDS011;5216;54.602;18.356;2022-12-04T01:44:11;32.40;;;22.03;;
10341;SDS011;5216;54.602;18.356;2022-12-04T01:46:39;32.67;;;21.17;;
10341;SDS011;5216;54.602;18.356;2022-12-04T01:49:08;33.60;;;21.50;;
10341;SDS011;5216;54.602;18.356;2022-12-04T01:51:41;32.80;;;21.70;;
10341;SDS011;5216;54.602;18.356;2022-12-04T01:54:14;33.20;;;22.60;;
10341;SDS011;5216;54.602;18.356;2022-12-04T01:56:46;34.13;;;23.00;;
10341;SDS011;5216;54.602;18.356;2022-12-04T01:59:14;31.57;;;22.50;;
10341;SDS011;5216;54.602;18.356;2022-12-04T02:01:45;34.67;;;22.03;;
10341;SDS011;5216;54.602;18.356;2022-12-04T02:04:15;32.33;;;22.60;;
10341;SDS011;5216;54.602;18.356;2022-12-04T02:06:41;34.20;;;21.83;;
10341;SDS011;5216;54.602;18.356;2022-12-04T02:09:08;33.23;;;22.23;;
10341;SDS011;5216;54.602;18.356;2022-12-04T02:11:37;33.60;;;22.93;;
10341;SDS011;5216;54.602;18.356;2022-12-04T02:21:35;33.23;;;22.27;;
10341;SDS011;5216;54.602;18.356;2022-12-04T02:29:04;32.97;;;21.73;;
10341;SDS011;5216;54.602;18.356;2022-12-04T02:31:34;33.87;;;20.80;;
10341;SDS011;5216;54.602;18.356;2022-12-04T02:34:06;39.47;;;23.10;;
10341;SDS011;5216;54.602;18.356;2022-12-04T02:36:35;34.77;;;21.20;;
10341;SDS011;5216;54.602;18.356;2022-12-04T02:39:08;34.93;;;21.93;;
10341;SDS011;5216;54.602;18.356;2022-12-04T02:41:44;35.60;;;22.03;;
10341;SDS011;5216;54.602;18.356;2022-12-04T02:44:18;34.87;;;21.87;;
10341;SDS011;5216;54.602;18.356;2022-12-04T02:46:46;36.27;;;22.00;;
10341;SDS011;5216;54.602;18.356;2022-12-04T02:49:15;36.03;;;22.47;;
10341;SDS011;5216;54.602;18.356;2022-12-04T02:51:42;32.40;;;20.90;;
10341;SDS011;5216;54.602;18.356;2022-12-04T02:54:18;38.43;;;22.33;;
10341;SDS011;5216;54.602;18.356;2022-12-04T02:56:47;33.47;;;20.90;;
10341;SDS011;5216;54.602;18.356;2022-12-04T02:59:20;33.43;;;22.07;;
10341;SDS011;5216;54.602;18.356;2022-12-04T03:01:48;34.37;;;22.03;;
10341;SDS011;5216;54.602;18.356;2022-12-04T03:04:17;33.67;;;22.33;;
10341;SDS011;5216;54.602;18.356;2022-12-04T03:06:46;38.13;;;22.70;;
10341;SDS011;5216;54.602;18.356;2022-12-04T03:09:18;33.23;;;22.83;;
10341;SDS011;5216;54.602;18.356;2022-12-04T03:11:54;35.53;;;21.87;;
10341;SDS011;5216;54.602;18.356;2022-12-04T03:14:26;34.50;;;21.13;;
10341;SDS011;5216;54.602;18.356;2022-12-04T03:16:54;37.17;;;22.17;;
10341;SDS011;5216;54.602;18.356;2022-12-04T03:19:27;35.37;;;22.33;;
10341;SDS011;5216;54.602;18.356;2022-12-04T03:21:58;35.03;;;23.00;;
10341;SDS011;5216;54.602;18.356;2022-12-04T03:24:30;36.00;;;22.67;;
10341;SDS011;5216;54.602;18.356;2022-12-04T03:29:29;37.40;;;22.07;;
10341;SDS011;5216;54.602;18.356;2022-12-04T03:34:33;32.23;;;20.67;;
10341;SDS011;5216;54.602;18.356;2022-12-04T03:37:09;33.37;;;21.50;;
10341;SDS011;5216;54.602;18.356;2022-12-04T03:39:41;33.43;;;20.93;;
10341;SDS011;5216;54.602;18.356;2022-12-04T03:42:12;34.43;;;21.03;;
10341;SDS011;5216;54.602;18.356;2022-12-04T03:47:38;31.47;;;20.50;;
10341;SDS011;5216;54.602;18.356;2022-12-04T03:50:08;33.77;;;21.47;;
10341;SDS011;5216;54.602;18.356;2022-12-04T03:57:57;27.77;;;19.53;;
10341;SDS011;5216;54.602;18.356;2022-12-04T04:00:25;29.60;;;19.67;;
10341;SDS011;5216;54.602;18.356;2022-12-04T04:02:56;30.20;;;19.73;;
10341;SDS011;5216;54.602;18.356;2022-12-04T04:05:24;27.37;;;19.53;;
10341;SDS011;5216;54.602;18.356;2022-12-04T04:07:52;29.97;;;20.10;;
10341;SDS011;5216;54.602;18.356;2022-12-04T04:10:22;30.70;;;20.80;;
10341;SDS011;5216;54.602;18.356;2022-12-04T04:12:56;29.00;;;19.90;;
10341;SDS011;5216;54.602;18.356;2022-12-04T04:15:43;25.97;;;19.13;;
10341;SDS011;5216;54.602;18.356;2022-12-04T04:18:29;30.47;;;19.60;;
10341;SDS011;5216;54.602;18.356;2022-12-04T04:21:17;27.80;;;19.00;;
10341;SDS011;5216;54.602;18.356;2022-12-04T04:24:03;26.77;;;19.13;;
10341;SDS011;5216;54.602;18.356;2022-12-04T04:26:43;27.37;;;19.30;;
10341;SDS011;5216;54.602;18.356;2022-12-04T04:29:10;26.37;;;19.30;;
10341;SDS011;5216;54.602;18.356;2022-12-04T04:31:45;29.27;;;19.47;;
10341;SDS011;5216;54.602;18.356;2022-12-04T04:34:28;27.33;;;18.73;;
10341;SDS011;5216;54.602;18.356;2022-12-04T04:39:39;30.03;;;19.77;;
10341;SDS011;5216;54.602;18.356;2022-12-04T04:50:12;26.63;;;18.53;;
10341;SDS011;5216;54.602;18.356;2022-12-04T04:52:41;28.10;;;19.63;;
10341;SDS011;5216;54.602;18.356;2022-12-04T04:55:09;28.00;;;18.63;;
10341;SDS011;5216;54.602;18.356;2022-12-04T04:57:36;26.03;;;18.87;;
10341;SDS011;5216;54.602;18.356;2022-12-04T05:00:04;29.67;;;18.43;;
10341;SDS011;5216;54.602;18.356;2022-12-04T05:02:30;27.00;;;19.03;;
10341;SDS011;5216;54.602;18.356;2022-12-04T05:04:57;28.40;;;19.47;;
10341;SDS011;5216;54.602;18.356;2022-12-04T05:07:24;27.23;;;19.23;;
10341;SDS011;5216;54.602;18.356;2022-12-04T05:09:50;28.60;;;20.23;;
10341;SDS011;5216;54.602;18.356;2022-12-04T05:12:16;28.53;;;19.43;;
10341;SDS011;5216;54.602;18.356;2022-12-04T05:14:43;26.00;;;19.37;;
10341;SDS011;5216;54.602;18.356;2022-12-04T05:17:09;25.97;;;19.17;;
10341;SDS011;5216;54.602;18.356;2022-12-04T05:19:38;28.47;;;20.57;;
10341;SDS011;5216;54.602;18.356;2022-12-04T05:22:26;31.53;;;20.57;;
10341;SDS011;5216;54.602;18.356;2022-12-04T05:24:54;26.10;;;19.17;;
10341;SDS011;5216;54.602;18.356;2022-12-04T05:27:21;28.73;;;19.37;;
10341;SDS011;5216;54.602;18.356;2022-12-04T05:29:47;25.43;;;18.43;;
10341;SDS011;5216;54.602;18.356;2022-12-04T05:32:16;25.17;;;18.17;;
10341;SDS011;5216;54.602;18.356;2022-12-04T05:34:43;29.50;;;19.70;;
10341;SDS011;5216;54.602;18.356;2022-12-04T05:37:09;30.83;;;19.90;;
10341;SDS011;5216;54.602;18.356;2022-12-04T05:39:36;26.70;;;18.97;;
10341;SDS011;5216;54.602;18.356;2022-12-04T05:42:02;27.90;;;19.77;;
10341;SDS011;5216;54.602;18.356;2022-12-04T05:44:29;27.63;;;18.97;;
10341;SDS011;5216;54.602;18.356;2022-12-04T05:46:55;29.27;;;20.00;;
10341;SDS011;5216;54.602;18.356;2022-12-04T05:49:22;27.90;;;19.43;;
10341;SDS011;5216;54.602;18.356;2022-12-04T05:51:49;27.40;;;19.63;;
10341;SDS011;5216;54.602;18.356;2022-12-04T05:54:16;25.83;;;19.40;;
10341;SDS011;5216;54.602;18.356;2022-12-04T05:56:43;27.47;;;19.23;;
10341;SDS011;5216;54.602;18.356;2022-12-04T05:59:09;26.67;;;18.77;;
10341;SDS011;5216;54.602;18.356;2022-12-04T06:01:36;28.43;;;19.27;;
10341;SDS011;5216;54.602;18.356;2022-12-04T06:04:02;26.60;;;18.87;;
10341;SDS011;5216;54.602;18.356;2022-12-04T06:06:28;30.93;;;19.83;;
10341;SDS011;5216;54.602;18.356;2022-12-04T06:08:56;27.90;;;20.23;;
10341;SDS011;5216;54.602;18.356;2022-12-04T06:11:24;27.33;;;19.10;;
10341;SDS011;5216;54.602;18.356;2022-12-04T06:13:51;28.47;;;19.93;;
10341;SDS011;5216;54.602;18.356;2022-12-04T06:16:18;25.80;;;19.03;;
10341;SDS011;5216;54.602;18.356;2022-12-04T06:18:49;27.57;;;19.50;;
10341;SDS011;5216;54.602;18.356;2022-12-04T06:21:17;25.93;;;19.47;;
10341;SDS011;5216;54.602;18.356;2022-12-04T06:23:44;29.47;;;21.60;;
10341;SDS011;5216;54.602;18.356;2022-12-04T06:26:10;29.00;;;21.30;;
10341;SDS011;5216;54.602;18.356;2022-12-04T06:28:37;31.87;;;21.30;;
10341;SDS011;5216;54.602;18.356;2022-12-04T06:31:04;27.20;;;19.57;;
10341;SDS011;5216;54.602;18.356;2022-12-04T06:33:31;27.60;;;19.90;;
10341;SDS011;5216;54.602;18.356;2022-12-04T06:36:02;28.67;;;20.50;;
10341;SDS011;5216;54.602;18.356;2022-12-04T06:38:29;29.30;;;21.00;;
10341;SDS011;5216;54.602;18.356;2022-12-04T06:40:56;28.83;;;20.10;;
10341;SDS011;5216;54.602;18.356;2022-12-04T06:43:22;27.97;;;19.90;;
10341;SDS011;5216;54.602;18.356;2022-12-04T06:48:54;30.20;;;21.27;;
10341;SDS011;5216;54.602;18.356;2022-12-04T06:51:22;31.20;;;21.33;;
10341;SDS011;5216;54.602;18.356;2022-12-04T06:53:49;30.00;;;20.27;;
10341;SDS011;5216;54.602;18.356;2022-12-04T06:56:16;33.63;;;22.23;;
10341;SDS011;5216;54.602;18.356;2022-12-04T06:58:46;33.40;;;21.70;;
10341;SDS011;5216;54.602;18.356;2022-12-04T07:01:14;31.17;;;21.47;;
10341;SDS011;5216;54.602;18.356;2022-12-04T07:03:41;30.03;;;20.90;;
10341;SDS011;5216;54.602;18.356;2022-12-04T07:06:20;29.53;;;21.57;;
10341;SDS011;5216;54.602;18.356;2022-12-04T07:08:48;29.97;;;20.50;;
10341;SDS011;5216;54.602;18.356;2022-12-04T07:11:15;36.40;;;25.10;;
10341;SDS011;5216;54.602;18.356;2022-12-04T07:13:41;31.63;;;22.27;;
10341;SDS011;5216;54.602;18.356;2022-12-04T07:16:09;32.93;;;21.27;;
10341;SDS011;5216;54.602;18.356;2022-12-04T07:18:36;31.27;;;21.40;;
10341;SDS011;5216;54.602;18.356;2022-12-04T07:21:06;29.60;;;21.20;;
10341;SDS011;5216;54.602;18.356;2022-12-04T07:23:33;30.67;;;20.83;;
10341;SDS011;5216;54.602;18.356;2022-12-04T07:26:03;32.10;;;20.37;;
10341;SDS011;5216;54.602;18.356;2022-12-04T07:28:29;30.60;;;21.67;;
10341;SDS011;5216;54.602;18.356;2022-12-04T07:30:56;32.37;;;22.07;;
10341;SDS011;5216;54.602;18.356;2022-12-04T07:33:22;31.37;;;22.93;;
10341;SDS011;5216;54.602;18.356;2022-12-04T07:35:58;42.37;;;30.27;;
10341;SDS011;5216;54.602;18.356;2022-12-04T07:38:25;32.70;;;24.13;;
10341;SDS011;5216;54.602;18.356;2022-12-04T07:40:54;29.60;;;21.17;;
10341;SDS011;5216;54.602;18.356;2022-12-04T07:43:21;30.17;;;20.83;;
10341;SDS011;5216;54.602;18.356;2022-12-04T07:45:48;30.07;;;19.77;;
10341;SDS011;5216;54.602;18.356;2022-12-04T07:48:14;30.47;;;20.97;;
10341;SDS011;5216;54.602;18.356;2022-12-04T07:50:41;29.10;;;20.23;;
10341;SDS011;5216;54.602;18.356;2022-12-04T07:53:07;25.73;;;19.73;;
10341;SDS011;5216;54.602;18.356;2022-12-04T07:55:34;30.00;;;21.67;;
10341;SDS011;5216;54.602;18.356;2022-12-04T07:58:00;31.93;;;21.90;;
10341;SDS011;5216;54.602;18.356;2022-12-04T08:00:27;26.53;;;19.10;;
10341;SDS011;5216;54.602;18.356;2022-12-04T08:02:53;25.80;;;19.50;;
10341;SDS011;5216;54.602;18.356;2022-12-04T08:05:20;24.90;;;17.77;;
10341;SDS011;5216;54.602;18.356;2022-12-04T08:07:47;22.80;;;17.53;;
10341;SDS011;5216;54.602;18.356;2022-12-04T08:10:13;22.20;;;16.73;;
10341;SDS011;5216;54.602;18.356;2022-12-04T08:12:40;25.20;;;17.97;;
10341;SDS011;5216;54.602;18.356;2022-12-04T08:15:06;28.40;;;19.40;;
10341;SDS011;5216;54.602;18.356;2022-12-04T08:17:33;25.70;;;18.93;;
10341;SDS011;5216;54.602;18.356;2022-12-04T08:19:59;24.37;;;17.90;;
10341;SDS011;5216;54.602;18.356;2022-12-04T08:22:26;25.20;;;18.67;;
10341;SDS011;5216;54.602;18.356;2022-12-04T08:24:53;24.67;;;18.03;;
10341;SDS011;5216;54.602;18.356;2022-12-04T08:27:20;25.83;;;18.23;;
10341;SDS011;5216;54.602;18.356;2022-12-04T08:29:46;23.73;;;17.43;;
10341;SDS011;5216;54.602;18.356;2022-12-04T08:32:13;24.70;;;17.63;;
10341;SDS011;5216;54.602;18.356;2022-12-04T08:34:40;25.90;;;17.63;;
10341;SDS011;5216;54.602;18.356;2022-12-04T08:37:06;26.03;;;18.53;;
10341;SDS011;5216;54.602;18.356;2022-12-04T08:39:34;25.90;;;19.07;;
10341;SDS011;5216;54.602;18.356;2022-12-04T08:42:01;26.50;;;18.97;;
10341;SDS011;5216;54.602;18.356;2022-12-04T08:44:28;26.40;;;18.97;;
10341;SDS011;5216;54.602;18.356;2022-12-04T08:46:55;25.43;;;18.93;;
10341;SDS011;5216;54.602;18.356;2022-12-04T08:49:32;22.53;;;17.10;;
10341;SDS011;5216;54.602;18.356;2022-12-04T08:52:00;23.93;;;17.27;;
10341;SDS011;5216;54.602;18.356;2022-12-04T08:54:27;22.77;;;18.30;;
10341;SDS011;5216;54.602;18.356;2022-12-04T08:57:01;24.40;;;17.30;;
10341;SDS011;5216;54.602;18.356;2022-12-04T08:59:28;22.53;;;16.70;;
10341;SDS011;5216;54.602;18.356;2022-12-04T09:01:56;21.20;;;16.60;;
10341;SDS011;5216;54.602;18.356;2022-12-04T09:04:24;25.53;;;17.83;;
10341;SDS011;5216;54.602;18.356;2022-12-04T09:06:51;25.03;;;18.33;;
10341;SDS011;5216;54.602;18.356;2022-12-04T09:09:17;24.43;;;17.40;;
10341;SDS011;5216;54.602;18.356;2022-12-04T09:11:44;24.50;;;17.43;;
10341;SDS011;5216;54.602;18.356;2022-12-04T09:14:12;26.03;;;16.80;;
10341;SDS011;5216;54.602;18.356;2022-12-04T09:16:38;22.93;;;17.07;;
10341;SDS011;5216;54.602;18.356;2022-12-04T09:19:05;23.43;;;17.00;;
10341;SDS011;5216;54.602;18.356;2022-12-04T09:21:32;25.17;;;17.70;;
10341;SDS011;5216;54.602;18.356;2022-12-04T09:23:59;23.87;;;17.60;;
10341;SDS011;5216;54.602;18.356;2022-12-04T09:26:29;23.20;;;17.07;;
10341;SDS011;5216;54.602;18.356;2022-12-04T09:28:57;24.70;;;18.27;;
10341;SDS011;5216;54.602;18.356;2022-12-04T09:31:24;25.13;;;17.93;;
10341;SDS011;5216;54.602;18.356;2022-12-04T09:33:51;24.57;;;18.87;;
10341;SDS011;5216;54.602;18.356;2022-12-04T09:36:18;24.37;;;17.37;;
10341;SDS011;5216;54.602;18.356;2022-12-04T09:38:46;27.27;;;19.07;;
10341;SDS011;5216;54.602;18.356;2022-12-04T09:46:38;26.87;;;20.87;;
10341;SDS011;5216;54.602;18.356;2022-12-04T09:49:10;27.63;;;18.67;;
10341;SDS011;5216;54.602;18.356;2022-12-04T09:51:38;25.13;;;18.03;;
10341;SDS011;5216;54.602;18.356;2022-12-04T09:54:28;25.90;;;18.03;;
10341;SDS011;5216;54.602;18.356;2022-12-04T09:56:59;26.83;;;19.00;;
10341;SDS011;5216;54.602;18.356;2022-12-04T09:59:28;27.57;;;18.20;;
10341;SDS011;5216;54.602;18.356;2022-12-04T10:02:35;24.33;;;16.60;;
10341;SDS011;5216;54.602;18.356;2022-12-04T10:05:03;25.80;;;17.37;;
10341;SDS011;5216;54.602;18.356;2022-12-04T10:10:27;23.80;;;16.27;;
10341;SDS011;5216;54.602;18.356;2022-12-04T10:15:31;22.40;;;16.40;;
10341;SDS011;5216;54.602;18.356;2022-12-04T10:18:09;22.77;;;16.00;;
10341;SDS011;5216;54.602;18.356;2022-12-04T10:21:01;20.03;;;14.87;;
10341;SDS011;5216;54.602;18.356;2022-12-04T10:26:16;22.90;;;16.30;;
10341;SDS011;5216;54.602;18.356;2022-12-04T10:28:47;23.07;;;16.37;;
10341;SDS011;5216;54.602;18.356;2022-12-04T10:31:20;23.03;;;16.20;;
10341;SDS011;5216;54.602;18.356;2022-12-04T10:33:50;24.03;;;17.60;;
10341;SDS011;5216;54.602;18.356;2022-12-04T10:36:19;24.70;;;17.67;;
10341;SDS011;5216;54.602;18.356;2022-12-04T10:38:48;24.47;;;17.20;;
10341;SDS011;5216;54.602;18.356;2022-12-04T10:43:48;26.43;;;18.17;;
10341;SDS011;5216;54.602;18.356;2022-12-04T10:46:19;29.43;;;19.53;;
10341;SDS011;5216;54.602;18.356;2022-12-04T10:49:18;24.37;;;18.13;;
10341;SDS011;5216;54.602;18.356;2022-12-04T10:51:46;25.67;;;18.43;;
10341;SDS011;5216;54.602;18.356;2022-12-04T10:54:29;26.60;;;18.33;;
10341;SDS011;5216;54.602;18.356;2022-12-04T10:59:24;23.47;;;17.10;;
10341;SDS011;5216;54.602;18.356;2022-12-04T11:01:51;24.27;;;17.67;;
10341;SDS011;5216;54.602;18.356;2022-12-04T11:04:31;23.57;;;16.77;;
10341;SDS011;5216;54.602;18.356;2022-12-04T11:07:06;24.80;;;16.53;;
10341;SDS011;5216;54.602;18.356;2022-12-04T11:09:33;23.27;;;16.70;;
10341;SDS011;5216;54.602;18.356;2022-12-04T11:12:04;25.10;;;16.90;;
10341;SDS011;5216;54.602;18.356;2022-12-04T11:14:31;25.13;;;16.90;;
10341;SDS011;5216;54.602;18.356;2022-12-04T11:17:02;22.90;;;15.67;;
10341;SDS011;5216;54.602;18.356;2022-12-04T11:19:30;23.57;;;16.50;;
10341;SDS011;5216;54.602;18.356;2022-12-04T11:21:59;23.60;;;17.00;;
10341;SDS011;5216;54.602;18.356;2022-12-04T11:24:31;24.73;;;16.70;;
10341;SDS011;5216;54.602;18.356;2022-12-04T11:26:59;25.87;;;17.17;;
10341;SDS011;5216;54.602;18.356;2022-12-04T11:29:30;26.00;;;17.80;;
10341;SDS011;5216;54.602;18.356;2022-12-04T11:31:58;29.40;;;18.73;;
10341;SDS011;5216;54.602;18.356;2022-12-04T11:34:36;29.00;;;18.63;;
10341;SDS011;5216;54.602;18.356;2022-12-04T11:37:14;23.43;;;16.60;;
10341;SDS011;5216;54.602;18.356;2022-12-04T11:39:43;24.47;;;16.80;;
10341;SDS011;5216;54.602;18.356;2022-12-04T11:44:47;23.53;;;16.50;;
10341;SDS011;5216;54.602;18.356;2022-12-04T11:47:15;23.13;;;16.13;;
10341;SDS011;5216;54.602;18.356;2022-12-04T11:49:42;24.83;;;16.87;;
10341;SDS011;5216;54.602;18.356;2022-12-04T11:52:21;24.23;;;16.63;;
10341;SDS011;5216;54.602;18.356;2022-12-04T11:55:23;24.40;;;16.73;;
10341;SDS011;5216;54.602;18.356;2022-12-04T12:00:22;24.90;;;16.47;;
10341;SDS011;5216;54.602;18.356;2022-12-04T12:05:38;22.57;;;16.27;;
10341;SDS011;5216;54.602;18.356;2022-12-04T12:10:50;23.50;;;16.80;;
10341;SDS011;5216;54.602;18.356;2022-12-04T12:13:34;21.93;;;16.53;;
10341;SDS011;5216;54.602;18.356;2022-12-04T12:16:25;22.47;;;15.30;;
10341;SDS011;5216;54.602;18.356;2022-12-04T12:21:26;23.43;;;16.20;;
10341;SDS011;5216;54.602;18.356;2022-12-04T12:26:26;24.43;;;16.73;;
10341;SDS011;5216;54.602;18.356;2022-12-04T12:31:33;36.17;;;26.10;;
10341;SDS011;5216;54.602;18.356;2022-12-04T12:34:08;25.07;;;17.57;;
10341;SDS011;5216;54.602;18.356;2022-12-04T12:36:40;24.93;;;16.13;;
10341;SDS011;5216;54.602;18.356;2022-12-04T12:39:19;23.00;;;15.77;;
10341;SDS011;5216;54.602;18.356;2022-12-04T12:41:51;23.97;;;17.40;;
10341;SDS011;5216;54.602;18.356;2022-12-04T12:46:58;21.93;;;15.60;;
10341;SDS011;5216;54.602;18.356;2022-12-04T12:49:32;21.33;;;14.53;;
10341;SDS011;5216;54.602;18.356;2022-12-04T12:52:02;20.93;;;14.80;;
10341;SDS011;5216;54.602;18.356;2022-12-04T12:54:40;22.87;;;14.97;;
10341;SDS011;5216;54.602;18.356;2022-12-04T12:57:17;21.47;;;15.67;;
10341;SDS011;5216;54.602;18.356;2022-12-04T12:59:46;21.43;;;15.03;;
10341;SDS011;5216;54.602;18.356;2022-12-04T13:05:08;24.13;;;16.03;;
10341;SDS011;5216;54.602;18.356;2022-12-04T13:10:13;21.57;;;15.50;;
10341;SDS011;5216;54.602;18.356;2022-12-04T13:12:48;21.33;;;15.10;;
10341;SDS011;5216;54.602;18.356;2022-12-04T13:15:18;21.47;;;14.90;;
10341;SDS011;5216;54.602;18.356;2022-12-04T13:17:46;20.03;;;13.73;;
10341;SDS011;5216;54.602;18.356;2022-12-04T13:20:30;23.33;;;15.03;;
10341;SDS011;5216;54.602;18.356;2022-12-04T13:41:26;20.77;;;14.80;;
10341;SDS011;5216;54.602;18.356;2022-12-04T13:43:54;22.30;;;15.83;;
10341;SDS011;5216;54.602;18.356;2022-12-04T13:48:53;23.27;;;16.17;;
10341;SDS011;5216;54.602;18.356;2022-12-04T13:51:21;22.60;;;15.67;;
10341;SDS011;5216;54.602;18.356;2022-12-04T13:53:59;23.73;;;15.63;;
10341;SDS011;5216;54.602;18.356;2022-12-04T13:56:29;21.37;;;15.00;;
10341;SDS011;5216;54.602;18.356;2022-12-04T13:58:57;21.53;;;15.27;;
10341;SDS011;5216;54.602;18.356;2022-12-04T14:01:27;21.37;;;15.23;;
10341;SDS011;5216;54.602;18.356;2022-12-04T14:03:56;22.93;;;15.40;;
10341;SDS011;5216;54.602;18.356;2022-12-04T14:06:27;24.87;;;16.33;;
10341;SDS011;5216;54.602;18.356;2022-12-04T14:09:01;23.57;;;16.03;;
10341;SDS011;5216;54.602;18.356;2022-12-04T14:11:29;25.33;;;16.30;;
10341;SDS011;5216;54.602;18.356;2022-12-04T14:13:58;22.03;;;16.23;;
10341;SDS011;5216;54.602;18.356;2022-12-04T14:16:36;24.17;;;16.53;;
10341;SDS011;5216;54.602;18.356;2022-12-04T14:19:04;23.73;;;16.40;;
10341;SDS011;5216;54.602;18.356;2022-12-04T14:21:44;22.97;;;16.60;;
10341;SDS011;5216;54.602;18.356;2022-12-04T14:24:16;25.73;;;18.13;;
10341;SDS011;5216;54.602;18.356;2022-12-04T14:26:49;24.30;;;17.63;;
10341;SDS011;5216;54.602;18.356;2022-12-04T14:29:40;22.57;;;16.60;;
10341;SDS011;5216;54.602;18.356;2022-12-04T14:32:26;23.33;;;15.87;;
10341;SDS011;5216;54.602;18.356;2022-12-04T14:34:54;21.50;;;16.00;;
10341;SDS011;5216;54.602;18.356;2022-12-04T14:37:24;23.67;;;15.80;;
10341;SDS011;5216;54.602;18.356;2022-12-04T14:39:53;20.90;;;15.07;;
10341;SDS011;5216;54.602;18.356;2022-12-04T14:42:22;23.40;;;15.57;;
10341;SDS011;5216;54.602;18.356;2022-12-04T14:44:57;24.53;;;16.10;;
10341;SDS011;5216;54.602;18.356;2022-12-04T14:50:13;23.83;;;16.37;;
10341;SDS011;5216;54.602;18.356;2022-12-04T15:00:16;24.90;;;16.80;;
10341;SDS011;5216;54.602;18.356;2022-12-04T15:02:44;19.73;;;15.30;;
10341;SDS011;5216;54.602;18.356;2022-12-04T15:05:27;21.20;;;15.60;;
10341;SDS011;5216;54.602;18.356;2022-12-04T15:07:58;20.87;;;15.70;;
10341;SDS011;5216;54.602;18.356;2022-12-04T15:10:49;20.03;;;15.40;;
10341;SDS011;5216;54.602;18.356;2022-12-04T15:13:35;19.87;;;14.73;;
10341;SDS011;5216;54.602;18.356;2022-12-04T15:16:11;21.03;;;15.10;;
10341;SDS011;5216;54.602;18.356;2022-12-04T15:18:51;19.67;;;15.00;;
10341;SDS011;5216;54.602;18.356;2022-12-04T15:21:18;22.10;;;15.17;;
10341;SDS011;5216;54.602;18.356;2022-12-04T15:23:45;20.63;;;14.70;;
10341;SDS011;5216;54.602;18.356;2022-12-04T15:26:19;22.70;;;15.90;;
10341;SDS011;5216;54.602;18.356;2022-12-04T15:28:49;22.67;;;15.90;;
10341;SDS011;5216;54.602;18.356;2022-12-04T15:31:21;21.87;;;15.63;;
10341;SDS011;5216;54.602;18.356;2022-12-04T15:33:50;19.23;;;14.93;;
10341;SDS011;5216;54.602;18.356;2022-12-04T15:39:03;20.00;;;15.07;;
10341;SDS011;5216;54.602;18.356;2022-12-04T15:41:31;21.87;;;15.63;;
10341;SDS011;5216;54.602;18.356;2022-12-04T15:43:58;22.37;;;16.43;;
10341;SDS011;5216;54.602;18.356;2022-12-04T15:46:29;22.17;;;16.40;;
10341;SDS011;5216;54.602;18.356;2022-12-04T15:49:12;21.87;;;16.67;;
10341;SDS011;5216;54.602;18.356;2022-12-04T15:51:41;20.97;;;16.13;;
10341;SDS011;5216;54.602;18.356;2022-12-04T15:54:12;20.17;;;15.67;;
10341;SDS011;5216;54.602;18.356;2022-12-04T15:56:39;21.80;;;16.30;;
10341;SDS011;5216;54.602;18.356;2022-12-04T15:59:12;20.10;;;15.60;;
10341;SDS011;5216;54.602;18.356;2022-12-04T16:01:40;20.43;;;15.33;;
10341;SDS011;5216;54.602;18.356;2022-12-04T16:04:17;21.90;;;15.90;;
10341;SDS011;5216;54.602;18.356;2022-12-04T16:06:45;20.87;;;15.83;;
10341;SDS011;5216;54.602;18.356;2022-12-04T16:11:42;21.63;;;15.87;;
10341;SDS011;5216;54.602;18.356;2022-12-04T16:16:39;23.17;;;16.43;;
10341;SDS011;5216;54.602;18.356;2022-12-04T16:19:08;21.30;;;16.80;;
10341;SDS011;5216;54.602;18.356;2022-12-04T16:21:37;25.73;;;17.77;;
10341;SDS011;5216;54.602;18.356;2022-12-04T16:24:04;23.67;;;17.30;;
10341;SDS011;5216;54.602;18.356;2022-12-04T16:26:30;21.03;;;16.20;;
10341;SDS011;5216;54.602;18.356;2022-12-04T16:28:57;22.70;;;17.27;;
10341;SDS011;5216;54.602;18.356;2022-12-04T16:31:25;23.20;;;17.00;;
10341;SDS011;5216;54.602;18.356;2022-12-04T16:33:52;23.83;;;16.63;;
10341;SDS011;5216;54.602;18.356;2022-12-04T16:36:19;22.17;;;16.83;;
10341;SDS011;5216;54.602;18.356;2022-12-04T16:38:46;21.47;;;15.93;;
10341;SDS011;5216;54.602;18.356;2022-12-04T16:41:13;22.47;;;16.37;;